createdAt,value
2023-04-29T00:02:38.084Z,28.35
2023-04-29T00:05:24.476Z,28.57
2023-04-29T00:08:10.391Z,28.19
2023-04-29T00:10:56.200Z,28.58
2023-04-29T00:13:41.961Z,28.61
2023-04-29T00:16:27.831Z,28.76
2023-04-29T00:19:13.765Z,28.96
2023-04-29T00:21:59.657Z,28.86
2023-04-29T00:24:45.689Z,28.91
2023-04-29T00:27:32.087Z,29.04
2023-04-29T00:30:18.167Z,29.03
2023-04-29T00:33:04.548Z,29.04
2023-04-29T00:35:50.520Z,29.27
2023-04-29T00:38:36.419Z,29.31
2023-04-29T00:41:22.307Z,29.39
2023-04-29T00:44:08.916Z,29.63
2023-04-29T00:46:54.858Z,29.48
2023-04-29T00:49:40.910Z,29.72
2023-04-29T00:52:31.740Z,29.73
2023-04-29T00:55:18.717Z,29.65
2023-04-29T00:58:04.570Z,29.59
2023-04-29T01:00:50.651Z,29.52
2023-04-29T01:03:37.195Z,29.90
2023-04-29T01:06:42.051Z,30.41
2023-04-29T01:09:52.601Z,29.91
2023-04-29T01:12:46.926Z,29.79
2023-04-29T01:15:39.786Z,29.89
2023-04-29T01:18:26.673Z,29.94
2023-04-29T01:21:12.628Z,29.94
2023-04-29T01:23:58.420Z,29.87
2023-04-29T01:26:59.485Z,30.28
2023-04-29T01:30:42.512Z,30.70
2023-04-29T01:33:35.169Z,30.22
2023-04-29T01:36:28.086Z,30.19
2023-04-29T01:39:47.092Z,30.79
2023-04-29T01:42:40.479Z,30.61
2023-04-29T01:45:32.810Z,30.37
2023-04-29T01:48:19.331Z,30.26
2023-04-29T01:51:07.256Z,30.20
2023-04-29T01:53:53.591Z,30.35
2023-04-29T01:56:40.239Z,30.29
2023-04-29T01:59:35.455Z,30.47
2023-04-29T02:02:50.991Z,30.47
2023-04-29T02:06:10.310Z,30.52
2023-04-29T02:08:57.173Z,30.65
2023-04-29T02:11:43.208Z,30.79
2023-04-29T02:14:29.174Z,30.82
2023-04-29T02:17:15.248Z,30.63
2023-04-29T02:20:02.575Z,30.89
2023-04-29T02:22:48.486Z,31.05
2023-04-29T02:25:34.868Z,30.83
2023-04-29T02:28:21.244Z,31.01
2023-04-29T02:31:07.526Z,31.02
2023-04-29T02:33:54.361Z,31.12
2023-04-29T02:36:40.180Z,31.13
2023-04-29T02:39:26.154Z,31.20
2023-04-29T02:42:14.758Z,31.21
2023-04-29T02:45:01.406Z,31.31
2023-04-29T02:47:47.595Z,31.31
2023-04-29T02:50:33.764Z,31.31
2023-04-29T02:53:21.058Z,31.41
2023-04-29T02:56:06.930Z,31.56
2023-04-29T02:58:52.804Z,31.54
2023-04-29T03:01:39.010Z,31.65
2023-04-29T03:04:25.717Z,31.70
2023-04-29T03:07:12.303Z,31.56
2023-04-29T03:09:58.805Z,31.82
2023-04-29T03:12:44.872Z,31.78
2023-04-29T03:15:30.959Z,31.88
2023-04-29T03:18:16.872Z,31.79
2023-04-29T03:21:04.844Z,31.97
2023-04-29T03:23:50.762Z,32.08
2023-04-29T03:26:43.897Z,32.11
2023-04-29T03:29:30.236Z,32.31
2023-04-29T03:32:16.162Z,32.06
2023-04-29T03:35:05.407Z,32.20
2023-04-29T03:38:01.722Z,32.27
2023-04-29T03:40:51.393Z,32.11
2023-04-29T03:43:37.420Z,32.28
2023-04-29T03:46:23.646Z,32.30
2023-04-29T03:49:09.907Z,32.70
2023-04-29T03:51:55.735Z,32.64
2023-04-29T03:54:43.724Z,32.53
2023-04-29T03:57:29.669Z,32.48
2023-04-29T04:00:15.858Z,32.64
2023-04-29T04:03:08.296Z,32.58
2023-04-29T04:05:55.428Z,32.56
2023-04-29T04:08:41.622Z,32.73
2023-04-29T04:11:32.203Z,32.70
2023-04-29T04:14:22.325Z,32.65
2023-04-29T04:17:09.075Z,32.90
2023-04-29T04:19:55.879Z,32.90
2023-04-29T04:22:41.713Z,32.96
2023-04-29T04:25:48.972Z,33.23
2023-04-29T04:28:54.902Z,33.24
2023-04-29T04:32:07.080Z,32.97
2023-04-29T04:34:57.404Z,32.96
2023-04-29T04:37:43.365Z,33.13
2023-04-29T04:40:29.734Z,33.29
2023-04-29T04:43:42.204Z,33.35
2023-04-29T04:46:35.248Z,33.20
2023-04-29T04:49:27.887Z,33.35
2023-04-29T04:52:13.777Z,33.25
2023-04-29T04:55:02.413Z,33.52
2023-04-29T04:57:50.955Z,33.36
2023-04-29T05:00:36.970Z,33.30
2023-04-29T05:03:22.919Z,33.52
2023-04-29T05:06:09.480Z,33.49
2023-04-29T05:08:57.089Z,33.61
2023-04-29T05:11:43.974Z,33.61
2023-04-29T05:14:32.901Z,33.77
2023-04-29T05:17:18.609Z,33.58
2023-04-29T05:20:05.759Z,33.82
2023-04-29T05:22:52.686Z,33.67
2023-04-29T05:25:39.662Z,33.74
2023-04-29T05:28:27.642Z,33.72
2023-04-29T05:31:15.264Z,33.75
2023-04-29T05:34:00.973Z,33.99
2023-04-29T05:36:47.006Z,33.71
2023-04-29T05:39:33.368Z,34.08
2023-04-29T05:42:28.253Z,34.09
2023-04-29T05:45:14.190Z,34.08
2023-04-29T05:48:00.292Z,34.19
2023-04-29T05:50:48.289Z,34.20
2023-04-29T05:53:35.849Z,34.08
2023-04-29T05:56:22.557Z,34.26
2023-04-29T05:59:08.482Z,34.12
2023-04-29T06:01:55.008Z,34.37
2023-04-29T06:04:42.033Z,34.29
2023-04-29T06:07:52.019Z,34.34
2023-04-29T06:10:56.873Z,34.43
2023-04-29T06:13:44.636Z,34.50
2023-04-29T06:16:37.084Z,34.63
2023-04-29T06:19:25.926Z,34.61
2023-04-29T06:22:14.879Z,34.71
2023-04-29T06:25:08.079Z,34.49
2023-04-29T06:28:08.965Z,34.35
2023-04-29T06:30:56.432Z,34.62
2023-04-29T06:33:42.911Z,34.45
2023-04-29T06:36:29.144Z,34.40
2023-04-29T06:39:34.275Z,34.28
2023-04-29T06:42:49.159Z,34.13
2023-04-29T06:46:00.100Z,34.10
2023-04-29T06:48:55.889Z,34.09
2023-04-29T06:51:42.906Z,34.37
2023-04-29T06:54:30.301Z,34.42
2023-04-29T06:57:16.351Z,34.52
2023-04-29T07:00:05.780Z,34.56
2023-04-29T07:02:52.576Z,34.52
2023-04-29T07:05:42.277Z,34.22
2023-04-29T07:08:28.818Z,34.29
2023-04-29T07:11:14.735Z,34.36
2023-04-29T07:14:00.528Z,34.32
2023-04-29T07:16:54.370Z,34.42
2023-04-29T07:19:40.226Z,34.37
2023-04-29T07:22:26.433Z,34.53
2023-04-29T07:25:12.239Z,34.46
2023-04-29T07:27:58.151Z,34.67
2023-04-29T07:30:45.576Z,34.63
2023-04-29T07:33:31.933Z,34.33
2023-04-29T07:36:17.933Z,34.57
2023-04-29T07:39:05.091Z,34.56
2023-04-29T07:41:52.141Z,34.55
2023-04-29T07:44:38.628Z,34.71
2023-04-29T07:47:24.786Z,34.41
2023-04-29T07:50:11.153Z,34.69
2023-04-29T07:53:00.342Z,34.66
2023-04-29T07:55:46.250Z,34.73
2023-04-29T07:58:32.366Z,34.75
2023-04-29T08:01:18.698Z,34.85
2023-04-29T08:04:09.167Z,34.68
2023-04-29T08:07:05.259Z,34.74
2023-04-29T08:09:51.157Z,34.40
2023-04-29T08:12:36.878Z,34.42
2023-04-29T08:15:22.553Z,34.44
2023-04-29T08:18:08.653Z,34.64
2023-04-29T08:20:54.271Z,34.38
2023-04-29T08:23:40.294Z,34.37
2023-04-29T08:26:27.541Z,34.34
2023-04-29T08:29:13.366Z,34.69
2023-04-29T08:31:59.458Z,34.49
2023-04-29T08:34:45.169Z,34.10
2023-04-29T08:37:30.906Z,34.46
2023-04-29T08:40:16.957Z,34.40
2023-04-29T08:43:06.250Z,34.56
2023-04-29T08:45:52.391Z,34.24
2023-04-29T08:48:44.222Z,34.11
2023-04-29T08:51:34.726Z,34.10
2023-04-29T08:54:20.469Z,33.82
2023-04-29T08:57:06.955Z,33.94
2023-04-29T08:59:53.512Z,33.78
2023-04-29T09:02:48.619Z,33.81
2023-04-29T09:05:35.472Z,33.92
2023-04-29T09:08:24.791Z,33.94
2023-04-29T09:11:12.224Z,33.77
2023-04-29T09:14:01.787Z,33.60
2023-04-29T09:16:48.757Z,33.57
2023-04-29T09:19:36.279Z,33.39
2023-04-29T09:22:26.922Z,33.56
2023-04-29T09:25:13.552Z,33.61
2023-04-29T09:28:04.086Z,33.50
2023-04-29T09:30:50.784Z,33.49
2023-04-29T09:33:55.362Z,33.78
2023-04-29T09:36:49.204Z,33.42
2023-04-29T09:39:41.082Z,33.38
2023-04-29T09:42:26.813Z,33.35
2023-04-29T09:45:12.781Z,33.20
2023-04-29T09:48:05.901Z,33.34
2023-04-29T09:51:03.269Z,33.15
2023-04-29T09:53:49.739Z,33.24
2023-04-29T09:56:50.883Z,33.15
2023-04-29T09:59:38.832Z,32.97
2023-04-29T10:02:25.727Z,33.00
2023-04-29T10:05:12.143Z,32.99
2023-04-29T10:08:00.147Z,32.97
2023-04-29T10:10:47.378Z,33.04
2023-04-29T10:13:35.588Z,32.86
2023-04-29T10:16:31.660Z,32.94
2023-04-29T10:19:27.837Z,32.96
2023-04-29T10:22:22.136Z,32.99
2023-04-29T10:25:10.519Z,32.88
2023-04-29T10:27:56.758Z,32.98
2023-04-29T10:30:44.344Z,32.93
2023-04-29T10:33:33.949Z,33.07
2023-04-29T10:36:21.154Z,32.98
2023-04-29T10:39:44.485Z,33.05
2023-04-29T10:42:42.809Z,33.27
2023-04-29T10:45:35.094Z,33.13
2023-04-29T10:48:22.066Z,33.12
2023-04-29T10:51:08.345Z,33.02
2023-04-29T10:54:15.636Z,33.23
2023-04-29T10:57:01.961Z,32.98
2023-04-29T10:59:48.222Z,32.75
2023-04-29T11:02:34.468Z,32.93
2023-04-29T11:05:32.152Z,33.03
2023-04-29T11:08:26.641Z,33.01
2023-04-29T11:11:14.864Z,33.04
2023-04-29T11:14:04.108Z,33.08
2023-04-29T11:16:57.237Z,33.23
2023-04-29T11:19:46.762Z,33.14
2023-04-29T11:22:35.928Z,33.23
2023-04-29T11:25:28.635Z,33.40
2023-04-29T11:28:18.514Z,33.57
2023-04-29T11:31:04.806Z,33.51
2023-04-29T11:33:51.328Z,33.59
2023-04-29T11:36:37.460Z,33.39
2023-04-29T11:39:23.520Z,33.53
2023-04-29T11:42:10.214Z,33.57
2023-04-29T11:45:00.665Z,33.49
2023-04-29T11:47:47.613Z,33.56
2023-04-29T11:50:33.933Z,33.71
2023-04-29T11:53:32.413Z,33.83
2023-04-29T11:56:24.315Z,33.78
2023-04-29T11:59:10.011Z,33.88
2023-04-29T12:01:58.205Z,33.95
2023-04-29T12:04:49.311Z,34.01
2023-04-29T12:07:36.621Z,34.01
2023-04-29T12:10:22.504Z,34.23
2023-04-29T12:13:10.205Z,34.26
2023-04-29T12:15:56.584Z,34.18
2023-04-29T12:18:43.472Z,34.47
2023-04-29T12:21:29.553Z,34.96
2023-04-29T12:24:15.591Z,35.33
2023-04-29T12:27:01.707Z,35.30
2023-04-29T12:29:48.033Z,35.95
2023-04-29T12:32:34.244Z,36.05
2023-04-29T12:35:20.210Z,36.31
2023-04-29T12:38:06.574Z,36.75
2023-04-29T12:40:52.839Z,36.85
2023-04-29T12:43:38.973Z,36.94
2023-04-29T12:46:24.773Z,36.88
2023-04-29T12:49:45.150Z,39.89
2023-04-29T12:52:31.321Z,37.34
2023-04-29T12:55:17.421Z,37.63
2023-04-29T12:58:11.002Z,37.99
2023-04-29T13:00:57.710Z,37.65
2023-04-29T13:03:43.988Z,38.04
2023-04-29T13:06:30.013Z,38.03
2023-04-29T13:09:19.159Z,38.06
2023-04-29T13:12:05.846Z,37.86
2023-04-29T13:14:52.047Z,37.83
2023-04-29T13:17:38.904Z,38.26
2023-04-29T13:20:24.712Z,38.10
2023-04-29T13:23:12.270Z,38.14
2023-04-29T13:25:58.497Z,38.59
2023-04-29T13:28:45.169Z,39.09
2023-04-29T13:31:31.075Z,39.38
2023-04-29T13:34:17.175Z,39.34
2023-04-29T13:37:03.278Z,39.60
2023-04-29T13:39:56.890Z,39.86
2023-04-29T13:42:49.383Z,40.09
2023-04-29T13:45:42.438Z,39.96
2023-04-29T13:49:01.656Z,40.29
2023-04-29T13:52:13.024Z,40.30
2023-04-29T14:00:47.103Z,40.85
2023-04-29T14:03:39.581Z,40.72
2023-04-29T14:06:25.750Z,40.63
2023-04-29T14:09:11.688Z,40.92
2023-04-29T14:11:57.819Z,41.10
2023-04-29T14:14:44.013Z,40.90
2023-04-29T14:17:30.256Z,41.30
2023-04-29T14:20:16.571Z,41.43
2023-04-29T14:23:02.512Z,41.32
2023-04-29T14:25:48.364Z,41.34
2023-04-29T14:28:36.820Z,41.66
2023-04-29T14:31:36.438Z,41.97
2023-04-29T14:34:25.464Z,41.50
2023-04-29T14:37:13.560Z,41.65
2023-04-29T14:40:00.931Z,41.82
2023-04-29T14:42:49.102Z,41.95
2023-04-29T14:45:35.712Z,42.18
2023-04-29T14:48:21.629Z,42.47
2023-04-29T14:51:08.200Z,42.43
2023-04-29T14:53:54.941Z,42.87
2023-04-29T14:56:40.840Z,42.79
2023-04-29T14:59:28.593Z,43.34
2023-04-29T15:02:14.777Z,43.20
2023-04-29T15:05:00.799Z,43.97
2023-04-29T15:07:47.647Z,43.69
2023-04-29T15:10:33.607Z,43.95
2023-04-29T15:13:19.394Z,44.05
2023-04-29T15:16:08.149Z,44.26
2023-04-29T15:18:54.337Z,44.02
2023-04-29T15:21:40.460Z,44.31
2023-04-29T15:24:26.690Z,44.56
2023-04-29T15:27:12.816Z,44.70
2023-04-29T15:29:58.739Z,44.45
2023-04-29T15:32:45.084Z,44.81
2023-04-29T15:35:31.799Z,44.97
2023-04-29T15:38:18.506Z,44.77
2023-04-29T15:41:04.555Z,44.82
2023-04-29T15:43:50.547Z,44.81
2023-04-29T15:46:36.724Z,44.73
2023-04-29T15:49:24.539Z,44.74
2023-04-29T15:52:10.835Z,44.80
2023-04-29T15:54:58.505Z,44.50
2023-04-29T15:57:44.664Z,45.00
2023-04-29T16:00:30.592Z,44.86
2023-04-29T16:03:16.916Z,45.20
2023-04-29T16:06:02.809Z,45.62
2023-04-29T16:08:57.728Z,45.66
2023-04-29T16:11:43.704Z,45.78
2023-04-29T16:14:34.872Z,45.97
2023-04-29T16:17:21.244Z,45.90
2023-04-29T16:20:08.259Z,45.96
2023-04-29T16:22:54.015Z,46.32
2023-04-29T16:25:41.615Z,46.09
2023-04-29T16:28:27.514Z,46.36
2023-04-29T16:31:13.735Z,46.39
2023-04-29T16:34:00.552Z,46.12
2023-04-29T16:36:46.600Z,46.29
2023-04-29T16:39:32.622Z,46.60
2023-04-29T16:42:19.761Z,46.46
2023-04-29T16:45:06.264Z,46.67
2023-04-29T16:47:52.566Z,46.68
2023-04-29T16:50:38.495Z,46.48
2023-04-29T16:53:25.294Z,46.75
2023-04-29T16:56:45.071Z,48.52
2023-04-29T16:59:34.408Z,46.82
2023-04-29T17:02:24.567Z,46.94
2023-04-29T17:05:43.220Z,48.08
2023-04-29T17:08:29.091Z,47.01
2023-04-29T17:11:15.276Z,47.12
2023-04-29T17:14:01.333Z,47.11
2023-04-29T17:16:47.448Z,47.26
2023-04-29T17:19:35.878Z,47.15
2023-04-29T17:22:22.812Z,47.02
2023-04-29T17:25:09.253Z,47.65
2023-04-29T17:27:55.467Z,47.62
2023-04-29T17:30:41.802Z,47.96
2023-04-29T17:33:54.931Z,47.75
2023-04-29T17:37:03.531Z,47.77
2023-04-29T17:39:49.599Z,47.88
2023-04-29T17:42:35.248Z,48.23
2023-04-29T17:45:20.983Z,48.15
2023-04-29T17:48:07.051Z,48.12
2023-04-29T17:50:54.117Z,48.54
2023-04-29T17:53:39.970Z,48.63
2023-04-29T17:56:26.567Z,48.53
2023-04-29T17:59:12.640Z,48.56
2023-04-29T18:01:59.077Z,48.80
2023-04-29T18:04:44.838Z,48.98
2023-04-29T18:07:31.475Z,49.41
2023-04-29T18:10:17.769Z,49.09
2023-04-29T18:13:04.031Z,49.13
2023-04-29T18:15:50.154Z,49.23
2023-04-29T18:18:36.390Z,49.38
2023-04-29T18:21:27.403Z,49.79
2023-04-29T18:24:13.419Z,49.92
2023-04-29T18:26:59.247Z,49.80
2023-04-29T18:29:45.806Z,49.88
2023-04-29T18:32:31.659Z,49.86
2023-04-29T18:35:17.590Z,50.14
2023-04-29T18:38:03.807Z,50.38
2023-04-29T18:40:49.972Z,49.98
2023-04-29T18:43:35.937Z,50.41
2023-04-29T18:46:22.020Z,50.64
2023-04-29T18:49:08.848Z,50.86
2023-04-29T18:51:54.859Z,50.88
2023-04-29T18:54:41.401Z,51.10
2023-04-29T18:57:28.306Z,51.06
2023-04-29T19:00:16.660Z,51.40
2023-04-29T19:03:03.308Z,51.35
2023-04-29T19:05:50.034Z,51.45
2023-04-29T19:08:36.376Z,51.13
2023-04-29T19:11:23.391Z,51.02
2023-04-29T19:14:09.940Z,51.05
2023-04-29T19:16:59.607Z,51.04
2023-04-29T19:19:46.448Z,51.27
2023-04-29T19:22:34.531Z,51.71
2023-04-29T19:25:21.767Z,51.52
2023-04-29T19:28:08.627Z,51.78
2023-04-29T19:30:54.793Z,51.69
2023-04-29T19:33:40.904Z,52.07
2023-04-29T19:36:30.686Z,52.05
2023-04-29T19:39:18.426Z,51.74
2023-04-29T19:42:04.959Z,52.04
2023-04-29T19:44:51.719Z,52.14
2023-04-29T19:47:37.807Z,51.96
2023-04-29T19:50:24.199Z,52.20
2023-04-29T19:53:11.453Z,52.10
2023-04-29T19:55:57.381Z,52.14
2023-04-29T19:58:43.548Z,52.40
2023-04-29T20:01:29.689Z,52.42
2023-04-29T20:04:15.618Z,52.44
2023-04-29T20:07:01.652Z,52.27
2023-04-29T20:09:48.469Z,52.45
2023-04-29T20:12:35.910Z,52.37
2023-04-29T20:15:22.064Z,52.42
2023-04-29T20:18:08.058Z,52.66
2023-04-29T20:20:54.057Z,52.65
2023-04-29T20:23:41.546Z,52.75
2023-04-29T20:26:27.478Z,52.53
2023-04-29T20:29:13.668Z,52.52
2023-04-29T20:31:59.524Z,52.60
2023-04-29T20:34:45.876Z,52.58
2023-04-29T20:37:31.988Z,52.40
2023-04-29T20:40:18.481Z,53.06
2023-04-29T20:43:04.719Z,53.20
2023-04-29T20:45:50.924Z,52.91
2023-04-29T20:48:36.808Z,52.95
2023-04-29T20:51:22.603Z,53.35
2023-04-29T20:54:08.780Z,53.11
2023-04-29T20:56:56.738Z,52.89
2023-04-29T20:59:44.064Z,53.25
2023-04-29T21:02:30.100Z,52.81
2023-04-29T21:05:15.835Z,52.53
2023-04-29T21:08:01.789Z,52.72
2023-04-29T21:10:47.593Z,52.91
2023-04-29T21:13:33.834Z,52.74
2023-04-29T21:16:19.813Z,53.11
2023-04-29T21:19:05.891Z,53.18
2023-04-29T21:21:52.097Z,53.58
2023-04-29T21:24:38.185Z,53.24
2023-04-29T21:27:24.453Z,53.64
2023-04-29T21:30:12.147Z,53.63
2023-04-29T21:32:58.517Z,53.89
2023-04-29T21:35:48.282Z,53.81
2023-04-29T21:38:34.953Z,53.94
2023-04-29T21:41:33.050Z,54.38
2023-04-29T21:44:18.948Z,53.93
2023-04-29T21:47:05.069Z,53.80
2023-04-29T21:49:51.361Z,54.03
2023-04-29T21:52:37.534Z,54.16
2023-04-29T21:55:23.760Z,54.06
2023-04-29T21:58:11.035Z,54.05
2023-04-29T22:01:03.208Z,54.03
2023-04-29T22:03:49.043Z,53.96
2023-04-29T22:06:36.781Z,53.83
2023-04-29T22:09:23.927Z,54.07
2023-04-29T22:12:09.676Z,54.07
2023-04-29T22:14:55.405Z,53.90
2023-04-29T22:17:41.284Z,54.05
2023-04-29T22:20:27.655Z,54.02
2023-04-29T22:23:13.961Z,53.95
2023-04-29T22:26:01.454Z,53.63
2023-04-29T22:28:47.591Z,53.80
2023-04-29T22:31:35.571Z,54.09
2023-04-29T22:34:21.456Z,53.90
2023-04-29T22:37:07.183Z,53.97
2023-04-29T22:39:53.793Z,54.25
2023-04-29T22:42:42.045Z,54.19
2023-04-29T22:45:28.453Z,54.19
2023-04-29T22:48:14.554Z,54.18
2023-04-29T22:51:01.018Z,54.06
2023-04-29T22:53:46.969Z,54.02
2023-04-29T22:56:33.584Z,53.95
2023-04-29T22:59:19.290Z,54.21
2023-04-29T23:02:05.259Z,54.18
2023-04-29T23:04:51.523Z,54.34
2023-04-29T23:07:37.604Z,54.16
2023-04-29T23:10:23.287Z,54.19
2023-04-29T23:13:09.095Z,54.17
2023-04-29T23:16:00.343Z,54.45
2023-04-29T23:18:46.408Z,54.31
2023-04-29T23:21:32.576Z,54.27
2023-04-29T23:24:18.652Z,54.27
2023-04-29T23:27:04.887Z,54.30
2023-04-29T23:29:50.783Z,54.38
2023-04-29T23:32:36.748Z,54.45
2023-04-29T23:35:22.745Z,54.28
2023-04-29T23:38:08.998Z,54.16
2023-04-29T23:40:54.801Z,54.43
2023-04-29T23:43:40.821Z,54.42
2023-04-29T23:46:26.979Z,54.54
2023-04-29T23:49:12.899Z,54.32
2023-04-29T23:51:58.632Z,54.55
2023-04-29T23:54:44.258Z,54.46
2023-04-29T23:57:30.027Z,54.53
